sensor_id;sensor_type;location;lat;lon;timestamp;temperature;humidity
37412;DHT22;23278;52.110;6.050;2022-08-21T00:01:08;15.40;92.20
37412;DHT22;23278;52.110;6.050;2022-08-21T00:03:35;15.30;92.20
37412;DHT22;23278;52.110;6.050;2022-08-21T00:06:01;15.20;92.30
37412;DHT22;23278;52.110;6.050;2022-08-21T00:08:27;15.20;92.30
37412;DHT22;23278;52.110;6.050;2022-08-21T00:10:53;15.20;92.30
37412;DHT22;23278;52.110;6.050;2022-08-21T00:13:19;15.20;92.40
37412;DHT22;23278;52.110;6.050;2022-08-21T00:15:47;15.10;92.40
37412;DHT22;23278;52.110;6.050;2022-08-21T00:18:14;15.10;92.50
37412;DHT22;23278;52.110;6.050;2022-08-21T00:20:42;15.10;92.50
37412;DHT22;23278;52.110;6.050;2022-08-21T00:23:08;15.10;92.60
37412;DHT22;23278;52.110;6.050;2022-08-21T00:25:34;15.10;92.60
37412;DHT22;23278;52.110;6.050;2022-08-21T00:28:01;15.10;92.60
37412;DHT22;23278;52.110;6.050;2022-08-21T00:30:28;15.10;92.60
37412;DHT22;23278;52.110;6.050;2022-08-21T00:32:55;15.10;92.60
37412;DHT22;23278;52.110;6.050;2022-08-21T00:35:29;15.10;92.70
37412;DHT22;23278;52.110;6.050;2022-08-21T00:37:56;15.10;92.70
37412;DHT22;23278;52.110;6.050;2022-08-21T00:43:27;15.10;92.80
37412;DHT22;23278;52.110;6.050;2022-08-21T00:45:54;15.10;92.80
37412;DHT22;23278;52.110;6.050;2022-08-21T00:48:21;15.10;92.80
37412;DHT22;23278;52.110;6.050;2022-08-21T00:51:02;15.00;92.90
37412;DHT22;23278;52.110;6.050;2022-08-21T00:53:30;15.00;92.90
37412;DHT22;23278;52.110;6.050;2022-08-21T00:55:57;15.00;93.00
37412;DHT22;23278;52.110;6.050;2022-08-21T00:58:24;14.90;93.00
37412;DHT22;23278;52.110;6.050;2022-08-21T01:00:52;14.90;93.00
37412;DHT22;23278;52.110;6.050;2022-08-21T01:03:22;14.90;93.10
37412;DHT22;23278;52.110;6.050;2022-08-21T01:05:48;14.90;93.10
37412;DHT22;23278;52.110;6.050;2022-08-21T01:08:16;14.90;93.10
37412;DHT22;23278;52.110;6.050;2022-08-21T01:10:43;14.90;93.20
37412;DHT22;23278;52.110;6.050;2022-08-21T01:13:10;14.90;93.20
37412;DHT22;23278;52.110;6.050;2022-08-21T01:15:40;14.90;93.30
37412;DHT22;23278;52.110;6.050;2022-08-21T01:18:09;14.80;93.30
37412;DHT22;23278;52.110;6.050;2022-08-21T01:20:37;14.80;93.30
37412;DHT22;23278;52.110;6.050;2022-08-21T01:23:05;14.80;93.30
37412;DHT22;23278;52.110;6.050;2022-08-21T01:25:32;14.70;93.40
37412;DHT22;23278;52.110;6.050;2022-08-21T01:28:04;14.70;93.40
37412;DHT22;23278;52.110;6.050;2022-08-21T01:30:34;14.70;93.50
37412;DHT22;23278;52.110;6.050;2022-08-21T01:33:00;14.60;93.50
37412;DHT22;23278;52.110;6.050;2022-08-21T01:35:26;14.60;93.60
37412;DHT22;23278;52.110;6.050;2022-08-21T01:37:52;14.60;93.60
37412;DHT22;23278;52.110;6.050;2022-08-21T01:40:18;14.50;93.60
37412;DHT22;23278;52.110;6.050;2022-08-21T01:42:45;14.50;93.60
37412;DHT22;23278;52.110;6.050;2022-08-21T01:45:13;14.50;93.70
37412;DHT22;23278;52.110;6.050;2022-08-21T01:47:39;14.50;93.70
37412;DHT22;23278;52.110;6.050;2022-08-21T01:50:09;14.50;93.70
37412;DHT22;23278;52.110;6.050;2022-08-21T01:52:36;14.40;93.80
37412;DHT22;23278;52.110;6.050;2022-08-21T01:55:03;14.40;93.70
37412;DHT22;23278;52.110;6.050;2022-08-21T01:57:29;14.40;93.80
37412;DHT22;23278;52.110;6.050;2022-08-21T01:59:55;14.40;93.80
37412;DHT22;23278;52.110;6.050;2022-08-21T02:02:21;14.40;93.80
37412;DHT22;23278;52.110;6.050;2022-08-21T02:04:47;14.40;93.80
37412;DHT22;23278;52.110;6.050;2022-08-21T02:07:13;14.40;93.90
37412;DHT22;23278;52.110;6.050;2022-08-21T02:09:40;14.40;93.90
37412;DHT22;23278;52.110;6.050;2022-08-21T02:12:08;14.40;94.10
37412;DHT22;23278;52.110;6.050;2022-08-21T02:14:35;14.40;94.20
37412;DHT22;23278;52.110;6.050;2022-08-21T02:17:01;14.40;94.20
37412;DHT22;23278;52.110;6.050;2022-08-21T02:19:27;14.40;94.20
37412;DHT22;23278;52.110;6.050;2022-08-21T02:21:53;14.40;94.40
37412;DHT22;23278;52.110;6.050;2022-08-21T02:24:19;14.40;94.40
37412;DHT22;23278;52.110;6.050;2022-08-21T02:26:45;14.40;94.60
37412;DHT22;23278;52.110;6.050;2022-08-21T02:29:11;14.40;94.70
37412;DHT22;23278;52.110;6.050;2022-08-21T02:31:37;14.40;94.90
37412;DHT22;23278;52.110;6.050;2022-08-21T02:34:03;14.40;94.80
37412;DHT22;23278;52.110;6.050;2022-08-21T02:36:29;14.40;94.90
37412;DHT22;23278;52.110;6.050;2022-08-21T02:38:55;14.40;94.90
37412;DHT22;23278;52.110;6.050;2022-08-21T02:41:21;14.50;94.90
37412;DHT22;23278;52.110;6.050;2022-08-21T02:43:48;14.50;95.00
37412;DHT22;23278;52.110;6.050;2022-08-21T02:46:17;14.50;95.00
37412;DHT22;23278;52.110;6.050;2022-08-21T02:48:43;14.50;95.00
37412;DHT22;23278;52.110;6.050;2022-08-21T02:51:15;14.50;95.10
37412;DHT22;23278;52.110;6.050;2022-08-21T02:53:43;14.40;95.00
37412;DHT22;23278;52.110;6.050;2022-08-21T02:56:12;14.40;95.10
37412;DHT22;23278;52.110;6.050;2022-08-21T02:58:56;14.40;95.10
37412;DHT22;23278;52.110;6.050;2022-08-21T03:01:22;14.40;95.10
37412;DHT22;23278;52.110;6.050;2022-08-21T03:03:48;14.40;95.10
37412;DHT22;23278;52.110;6.050;2022-08-21T03:06:16;14.40;95.10
37412;DHT22;23278;52.110;6.050;2022-08-21T03:08:44;14.40;95.10
37412;DHT22;23278;52.110;6.050;2022-08-21T03:11:12;14.40;95.20
37412;DHT22;23278;52.110;6.050;2022-08-21T03:13:38;14.40;95.30
37412;DHT22;23278;52.110;6.050;2022-08-21T03:16:04;14.50;95.50
37412;DHT22;23278;52.110;6.050;2022-08-21T03:18:31;14.50;95.60
37412;DHT22;23278;52.110;6.050;2022-08-21T03:20:57;14.40;95.60
37412;DHT22;23278;52.110;6.050;2022-08-21T03:23:23;14.50;95.70
37412;DHT22;23278;52.110;6.050;2022-08-21T03:25:49;14.50;95.80
37412;DHT22;23278;52.110;6.050;2022-08-21T03:28:19;14.40;95.70
37412;DHT22;23278;52.110;6.050;2022-08-21T03:30:47;14.40;95.80
37412;DHT22;23278;52.110;6.050;2022-08-21T03:33:13;14.50;96.00
37412;DHT22;23278;52.110;6.050;2022-08-21T03:35:39;14.40;96.10
37412;DHT22;23278;52.110;6.050;2022-08-21T03:38:06;14.40;96.40
37412;DHT22;23278;52.110;6.050;2022-08-21T03:40:32;14.50;96.30
37412;DHT22;23278;52.110;6.050;2022-08-21T03:42:58;14.50;96.50
37412;DHT22;23278;52.110;6.050;2022-08-21T03:45:24;14.40;96.50
37412;DHT22;23278;52.110;6.050;2022-08-21T03:47:58;14.50;96.50
37412;DHT22;23278;52.110;6.050;2022-08-21T03:50:27;14.40;96.60
37412;DHT22;23278;52.110;6.050;2022-08-21T03:52:54;14.50;96.60
37412;DHT22;23278;52.110;6.050;2022-08-21T03:55:20;14.40;96.70
37412;DHT22;23278;52.110;6.050;2022-08-21T03:57:46;14.40;96.70
37412;DHT22;23278;52.110;6.050;2022-08-21T04:00:14;14.40;96.70
37412;DHT22;23278;52.110;6.050;2022-08-21T04:02:41;14.40;96.80
37412;DHT22;23278;52.110;6.050;2022-08-21T04:05:08;14.40;96.90
37412;DHT22;23278;52.110;6.050;2022-08-21T04:07:35;14.40;96.90
37412;DHT22;23278;52.110;6.050;2022-08-21T04:10:02;14.40;96.90
37412;DHT22;23278;52.110;6.050;2022-08-21T04:12:29;14.40;97.20
37412;DHT22;23278;52.110;6.050;2022-08-21T04:14:55;14.40;97.30
37412;DHT22;23278;52.110;6.050;2022-08-21T04:17:22;14.40;97.30
37412;DHT22;23278;52.110;6.050;2022-08-21T04:19:48;14.30;97.30
37412;DHT22;23278;52.110;6.050;2022-08-21T04:22:15;14.30;97.30
37412;DHT22;23278;52.110;6.050;2022-08-21T04:24:41;14.40;97.70
37412;DHT22;23278;52.110;6.050;2022-08-21T04:27:07;14.30;97.50
37412;DHT22;23278;52.110;6.050;2022-08-21T04:29:33;14.30;97.40
37412;DHT22;23278;52.110;6.050;2022-08-21T04:31:59;14.30;97.50
37412;DHT22;23278;52.110;6.050;2022-08-21T04:34:25;14.30;97.50
37412;DHT22;23278;52.110;6.050;2022-08-21T04:36:51;14.30;97.60
37412;DHT22;23278;52.110;6.050;2022-08-21T04:39:17;14.30;97.60
37412;DHT22;23278;52.110;6.050;2022-08-21T04:41:43;14.30;97.60
37412;DHT22;23278;52.110;6.050;2022-08-21T04:44:08;14.30;97.60
37412;DHT22;23278;52.110;6.050;2022-08-21T04:46:34;14.30;97.70
37412;DHT22;23278;52.110;6.050;2022-08-21T04:49:00;14.30;97.70
37412;DHT22;23278;52.110;6.050;2022-08-21T04:51:30;14.30;97.70
37412;DHT22;23278;52.110;6.050;2022-08-21T04:54:03;14.30;97.90
37412;DHT22;23278;52.110;6.050;2022-08-21T04:56:39;14.30;97.70
37412;DHT22;23278;52.110;6.050;2022-08-21T04:59:19;14.30;97.70
37412;DHT22;23278;52.110;6.050;2022-08-21T05:01:47;14.30;97.70
37412;DHT22;23278;52.110;6.050;2022-08-21T05:04:15;14.30;97.70
37412;DHT22;23278;52.110;6.050;2022-08-21T05:06:45;14.30;98.00
37412;DHT22;23278;52.110;6.050;2022-08-21T05:09:15;14.30;97.90
37412;DHT22;23278;52.110;6.050;2022-08-21T05:11:41;14.40;98.00
37412;DHT22;23278;52.110;6.050;2022-08-21T05:14:09;14.40;97.90
37412;DHT22;23278;52.110;6.050;2022-08-21T05:16:35;14.40;97.80
37412;DHT22;23278;52.110;6.050;2022-08-21T05:19:01;14.40;97.90
37412;DHT22;23278;52.110;6.050;2022-08-21T05:21:26;14.40;97.80
37412;DHT22;23278;52.110;6.050;2022-08-21T05:23:52;14.40;97.90
37412;DHT22;23278;52.110;6.050;2022-08-21T05:26:18;14.40;97.80
37412;DHT22;23278;52.110;6.050;2022-08-21T05:28:44;14.40;97.80
37412;DHT22;23278;52.110;6.050;2022-08-21T05:31:10;14.40;97.80
37412;DHT22;23278;52.110;6.050;2022-08-21T05:33:36;14.40;97.80
37412;DHT22;23278;52.110;6.050;2022-08-21T05:36:02;14.50;97.80
37412;DHT22;23278;52.110;6.050;2022-08-21T05:38:28;14.50;97.80
37412;DHT22;23278;52.110;6.050;2022-08-21T05:40:54;14.60;97.90
37412;DHT22;23278;52.110;6.050;2022-08-21T05:43:20;14.60;97.80
37412;DHT22;23278;52.110;6.050;2022-08-21T05:45:46;14.60;97.90
37412;DHT22;23278;52.110;6.050;2022-08-21T05:48:21;14.70;97.90
37412;DHT22;23278;52.110;6.050;2022-08-21T05:50:49;14.70;97.80
37412;DHT22;23278;52.110;6.050;2022-08-21T05:53:16;14.80;98.00
37412;DHT22;23278;52.110;6.050;2022-08-21T05:55:44;14.80;98.10
37412;DHT22;23278;52.110;6.050;2022-08-21T05:58:10;14.90;98.00
37412;DHT22;23278;52.110;6.050;2022-08-21T06:00:37;14.90;98.10
37412;DHT22;23278;52.110;6.050;2022-08-21T06:03:03;15.00;98.00
37412;DHT22;23278;52.110;6.050;2022-08-21T06:05:29;15.00;98.00
37412;DHT22;23278;52.110;6.050;2022-08-21T06:07:56;15.10;98.00
37412;DHT22;23278;52.110;6.050;2022-08-21T06:10:22;15.20;98.10
37412;DHT22;23278;52.110;6.050;2022-08-21T06:12:53;15.30;98.10
37412;DHT22;23278;52.110;6.050;2022-08-21T06:15:19;15.40;98.10
37412;DHT22;23278;52.110;6.050;2022-08-21T06:17:45;15.40;98.00
37412;DHT22;23278;52.110;6.050;2022-08-21T06:20:11;15.50;98.00
37412;DHT22;23278;52.110;6.050;2022-08-21T06:22:37;15.60;98.00
37412;DHT22;23278;52.110;6.050;2022-08-21T06:25:03;15.60;98.00
37412;DHT22;23278;52.110;6.050;2022-08-21T06:27:29;15.70;98.00
37412;DHT22;23278;52.110;6.050;2022-08-21T06:29:55;15.80;97.90
37412;DHT22;23278;52.110;6.050;2022-08-21T06:32:23;15.80;97.90
37412;DHT22;23278;52.110;6.050;2022-08-21T06:34:49;15.90;97.90
37412;DHT22;23278;52.110;6.050;2022-08-21T06:37:15;16.00;97.80
37412;DHT22;23278;52.110;6.050;2022-08-21T06:39:40;16.00;97.80
37412;DHT22;23278;52.110;6.050;2022-08-21T06:42:13;16.10;97.90
37412;DHT22;23278;52.110;6.050;2022-08-21T06:44:39;16.20;97.90
37412;DHT22;23278;52.110;6.050;2022-08-21T06:47:05;16.20;97.80
37412;DHT22;23278;52.110;6.050;2022-08-21T06:49:31;16.30;97.80
37412;DHT22;23278;52.110;6.050;2022-08-21T06:51:57;16.40;97.80
37412;DHT22;23278;52.110;6.050;2022-08-21T06:54:23;16.50;97.70
37412;DHT22;23278;52.110;6.050;2022-08-21T06:56:49;16.50;97.70
37412;DHT22;23278;52.110;6.050;2022-08-21T06:59:14;16.60;97.60
37412;DHT22;23278;52.110;6.050;2022-08-21T07:01:40;16.70;97.50
37412;DHT22;23278;52.110;6.050;2022-08-21T07:04:06;16.70;97.60
37412;DHT22;23278;52.110;6.050;2022-08-21T07:06:33;16.80;97.70
37412;DHT22;23278;52.110;6.050;2022-08-21T07:08:59;16.90;97.50
37412;DHT22;23278;52.110;6.050;2022-08-21T07:11:26;17.00;97.40
37412;DHT22;23278;52.110;6.050;2022-08-21T07:13:53;17.00;97.30
37412;DHT22;23278;52.110;6.050;2022-08-21T07:16:20;17.10;97.30
37412;DHT22;23278;52.110;6.050;2022-08-21T07:18:47;17.10;97.20
37412;DHT22;23278;52.110;6.050;2022-08-21T07:21:15;17.20;97.20
37412;DHT22;23278;52.110;6.050;2022-08-21T07:23:44;17.30;96.80
37412;DHT22;23278;52.110;6.050;2022-08-21T07:26:12;17.30;96.40
37412;DHT22;23278;52.110;6.050;2022-08-21T07:28:38;17.50;96.30
37412;DHT22;23278;52.110;6.050;2022-08-21T07:31:04;17.50;96.20
37412;DHT22;23278;52.110;6.050;2022-08-21T07:33:33;17.60;96.20
37412;DHT22;23278;52.110;6.050;2022-08-21T07:36:00;17.60;96.20
37412;DHT22;23278;52.110;6.050;2022-08-21T07:38:26;17.80;95.90
37412;DHT22;23278;52.110;6.050;2022-08-21T07:40:54;17.80;95.70
37412;DHT22;23278;52.110;6.050;2022-08-21T07:43:21;17.90;95.30
37412;DHT22;23278;52.110;6.050;2022-08-21T07:45:48;18.00;94.60
37412;DHT22;23278;52.110;6.050;2022-08-21T07:48:15;18.10;94.30
37412;DHT22;23278;52.110;6.050;2022-08-21T07:50:42;18.20;93.80
37412;DHT22;23278;52.110;6.050;2022-08-21T07:53:08;18.30;93.50
37412;DHT22;23278;52.110;6.050;2022-08-21T07:55:34;18.40;93.30
37412;DHT22;23278;52.110;6.050;2022-08-21T07:58:00;18.50;93.40
37412;DHT22;23278;52.110;6.050;2022-08-21T08:00:28;18.60;93.40
37412;DHT22;23278;52.110;6.050;2022-08-21T08:02:55;18.80;93.10
37412;DHT22;23278;52.110;6.050;2022-08-21T08:05:25;18.80;92.90
37412;DHT22;23278;52.110;6.050;2022-08-21T08:07:51;19.00;92.80
37412;DHT22;23278;52.110;6.050;2022-08-21T08:10:18;19.10;91.80
37412;DHT22;23278;52.110;6.050;2022-08-21T08:12:45;19.30;91.40
37412;DHT22;23278;52.110;6.050;2022-08-21T08:15:15;19.40;90.80
37412;DHT22;23278;52.110;6.050;2022-08-21T08:17:41;19.60;90.30
37412;DHT22;23278;52.110;6.050;2022-08-21T08:20:09;19.70;89.80
37412;DHT22;23278;52.110;6.050;2022-08-21T08:22:37;19.80;90.00
37412;DHT22;23278;52.110;6.050;2022-08-21T08:25:04;19.90;89.80
37412;DHT22;23278;52.110;6.050;2022-08-21T08:27:30;20.00;89.60
37412;DHT22;23278;52.110;6.050;2022-08-21T08:29:56;20.10;89.40
37412;DHT22;23278;52.110;6.050;2022-08-21T08:32:23;20.20;88.70
37412;DHT22;23278;52.110;6.050;2022-08-21T08:34:49;20.30;88.40
37412;DHT22;23278;52.110;6.050;2022-08-21T08:37:18;20.40;88.10
37412;DHT22;23278;52.110;6.050;2022-08-21T08:39:45;20.40;88.00
37412;DHT22;23278;52.110;6.050;2022-08-21T08:42:14;20.50;88.30
37412;DHT22;23278;52.110;6.050;2022-08-21T08:44:42;20.60;88.20
37412;DHT22;23278;52.110;6.050;2022-08-21T08:47:13;20.80;87.80
37412;DHT22;23278;52.110;6.050;2022-08-21T08:54:45;21.00;87.00
37412;DHT22;23278;52.110;6.050;2022-08-21T08:57:17;21.10;86.60
37412;DHT22;23278;52.110;6.050;2022-08-21T08:59:48;21.20;86.60
37412;DHT22;23278;52.110;6.050;2022-08-21T09:02:15;21.40;86.90
37412;DHT22;23278;52.110;6.050;2022-08-21T09:04:42;21.60;86.20
37412;DHT22;23278;52.110;6.050;2022-08-21T09:07:31;21.80;85.60
37412;DHT22;23278;52.110;6.050;2022-08-21T09:18:36;22.80;81.40
37412;DHT22;23278;52.110;6.050;2022-08-21T09:26:17;23.70;77.40
37412;DHT22;23278;52.110;6.050;2022-08-21T09:28:44;24.20;76.50
37412;DHT22;23278;52.110;6.050;2022-08-21T09:31:21;24.90;74.10
37412;DHT22;23278;52.110;6.050;2022-08-21T09:33:47;25.60;70.70
37412;DHT22;23278;52.110;6.050;2022-08-21T09:36:24;26.10;69.00
37412;DHT22;23278;52.110;6.050;2022-08-21T09:38:53;26.60;66.90
37412;DHT22;23278;52.110;6.050;2022-08-21T09:41:28;27.00;64.20
37412;DHT22;23278;52.110;6.050;2022-08-21T09:43:54;27.50;62.60
37412;DHT22;23278;52.110;6.050;2022-08-21T09:46:23;27.90;59.60
37412;DHT22;23278;52.110;6.050;2022-08-21T09:48:52;28.30;59.20
37412;DHT22;23278;52.110;6.050;2022-08-21T09:51:23;29.00;57.40
37412;DHT22;23278;52.110;6.050;2022-08-21T09:53:58;29.70;55.00
37412;DHT22;23278;52.110;6.050;2022-08-21T09:56:38;30.10;51.80
37412;DHT22;23278;52.110;6.050;2022-08-21T09:59:29;30.20;52.10
37412;DHT22;23278;52.110;6.050;2022-08-21T10:01:58;30.60;50.30
37412;DHT22;23278;52.110;6.050;2022-08-21T10:04:33;31.00;48.90
37412;DHT22;23278;52.110;6.050;2022-08-21T10:07:11;31.50;47.70
37412;DHT22;23278;52.110;6.050;2022-08-21T10:09:39;31.90;47.00
37412;DHT22;23278;52.110;6.050;2022-08-21T10:12:16;31.80;46.40
37412;DHT22;23278;52.110;6.050;2022-08-21T10:15:07;30.90;47.10
37412;DHT22;23278;52.110;6.050;2022-08-21T10:17:54;30.30;47.90
37412;DHT22;23278;52.110;6.050;2022-08-21T10:20:31;30.10;47.60
37412;DHT22;23278;52.110;6.050;2022-08-21T10:23:29;29.40;47.60
37412;DHT22;23278;52.110;6.050;2022-08-21T10:26:33;29.30;47.60
37412;DHT22;23278;52.110;6.050;2022-08-21T10:34:58;33.60;42.40
37412;DHT22;23278;52.110;6.050;2022-08-21T10:40:36;34.30;40.20
37412;DHT22;23278;52.110;6.050;2022-08-21T10:46:06;34.50;38.30
37412;DHT22;23278;52.110;6.050;2022-08-21T10:51:12;35.40;38.60
37412;DHT22;23278;52.110;6.050;2022-08-21T10:56:19;35.10;36.90
37412;DHT22;23278;52.110;6.050;2022-08-21T10:59:00;36.00;36.50
37412;DHT22;23278;52.110;6.050;2022-08-21T11:04:18;36.90;36.10
37412;DHT22;23278;52.110;6.050;2022-08-21T11:06:53;36.60;36.50
37412;DHT22;23278;52.110;6.050;2022-08-21T11:09:24;36.30;36.80
37412;DHT22;23278;52.110;6.050;2022-08-21T11:12:19;35.90;37.10
37412;DHT22;23278;52.110;6.050;2022-08-21T11:14:58;34.80;38.30
37412;DHT22;23278;52.110;6.050;2022-08-21T11:17:45;33.70;39.00
37412;DHT22;23278;52.110;6.050;2022-08-21T11:20:26;34.80;38.10
37412;DHT22;23278;52.110;6.050;2022-08-21T11:22:58;36.70;36.70
37412;DHT22;23278;52.110;6.050;2022-08-21T11:30:39;41.30;33.10
37412;DHT22;23278;52.110;6.050;2022-08-21T11:33:30;42.00;32.10
37412;DHT22;23278;52.110;6.050;2022-08-21T11:36:46;42.20;31.90
37412;DHT22;23278;52.110;6.050;2022-08-21T11:47:12;43.90;30.90
37412;DHT22;23278;52.110;6.050;2022-08-21T11:52:27;42.80;30.90
37412;DHT22;23278;52.110;6.050;2022-08-21T11:55:00;43.30;30.20
37412;DHT22;23278;52.110;6.050;2022-08-21T11:57:57;43.30;30.20
37412;DHT22;23278;52.110;6.050;2022-08-21T12:00:33;41.90;30.70
37412;DHT22;23278;52.110;6.050;2022-08-21T12:03:22;40.30;31.80
37412;DHT22;23278;52.110;6.050;2022-08-21T12:05:59;39.90;31.60
37412;DHT22;23278;52.110;6.050;2022-08-21T12:08:37;38.90;32.20
37412;DHT22;23278;52.110;6.050;2022-08-21T12:13:40;41.40;30.40
37412;DHT22;23278;52.110;6.050;2022-08-21T12:19:05;44.00;29.30
37412;DHT22;23278;52.110;6.050;2022-08-21T12:21:31;44.50;29.00
37412;DHT22;23278;52.110;6.050;2022-08-21T12:26:52;45.80;29.00
37412;DHT22;23278;52.110;6.050;2022-08-21T12:29:33;46.60;28.50
37412;DHT22;23278;52.110;6.050;2022-08-21T12:34:44;44.60;28.60
37412;DHT22;23278;52.110;6.050;2022-08-21T12:40:04;44.60;28.90
37412;DHT22;23278;52.110;6.050;2022-08-21T12:42:41;44.00;29.40
37412;DHT22;23278;52.110;6.050;2022-08-21T12:45:32;42.50;29.90
37412;DHT22;23278;52.110;6.050;2022-08-21T12:48:13;40.80;30.60
37412;DHT22;23278;52.110;6.050;2022-08-21T12:50:58;39.00;31.80
37412;DHT22;23278;52.110;6.050;2022-08-21T12:53:59;37.60;32.80
37412;DHT22;23278;52.110;6.050;2022-08-21T12:56:28;36.90;33.30
37412;DHT22;23278;52.110;6.050;2022-08-21T12:59:05;38.70;32.20
37412;DHT22;23278;52.110;6.050;2022-08-21T13:01:35;39.50;31.60
37412;DHT22;23278;52.110;6.050;2022-08-21T13:04:13;38.30;32.30
37412;DHT22;23278;52.110;6.050;2022-08-21T13:06:43;37.00;33.30
37412;DHT22;23278;52.110;6.050;2022-08-21T13:09:15;36.50;33.50
37412;DHT22;23278;52.110;6.050;2022-08-21T13:11:44;37.20;33.10
37412;DHT22;23278;52.110;6.050;2022-08-21T13:16:55;41.30;30.70
37412;DHT22;23278;52.110;6.050;2022-08-21T13:19:22;43.20;29.90
37412;DHT22;23278;52.110;6.050;2022-08-21T13:21:49;44.40;29.60
37412;DHT22;23278;52.110;6.050;2022-08-21T13:24:19;45.60;29.40
37412;DHT22;23278;52.110;6.050;2022-08-21T13:26:47;46.70;28.80
37412;DHT22;23278;52.110;6.050;2022-08-21T13:29:17;47.10;28.50
37412;DHT22;23278;52.110;6.050;2022-08-21T13:31:47;47.30;28.30
37412;DHT22;23278;52.110;6.050;2022-08-21T13:34:14;47.50;28.20
37412;DHT22;23278;52.110;6.050;2022-08-21T13:36:42;47.60;28.00
37412;DHT22;23278;52.110;6.050;2022-08-21T13:39:11;47.60;27.90
37412;DHT22;23278;52.110;6.050;2022-08-21T13:41:41;47.80;27.80
37412;DHT22;23278;52.110;6.050;2022-08-21T13:44:18;48.00;27.70
37412;DHT22;23278;52.110;6.050;2022-08-21T13:46:45;48.50;27.40
37412;DHT22;23278;52.110;6.050;2022-08-21T13:49:15;48.40;27.10
37412;DHT22;23278;52.110;6.050;2022-08-21T13:51:43;48.40;27.10
37412;DHT22;23278;52.110;6.050;2022-08-21T13:54:40;48.20;27.20
37412;DHT22;23278;52.110;6.050;2022-08-21T13:57:24;45.70;28.10
37412;DHT22;23278;52.110;6.050;2022-08-21T13:59:50;43.40;28.80
37412;DHT22;23278;52.110;6.050;2022-08-21T14:02:20;42.60;29.10
37412;DHT22;23278;52.110;6.050;2022-08-21T14:05:04;41.20;29.80
37412;DHT22;23278;52.110;6.050;2022-08-21T14:07:39;39.70;30.40
37412;DHT22;23278;52.110;6.050;2022-08-21T14:10:24;38.70;30.90
37412;DHT22;23278;52.110;6.050;2022-08-21T14:12:57;39.30;30.60
37412;DHT22;23278;52.110;6.050;2022-08-21T14:15:26;39.40;30.30
37412;DHT22;23278;52.110;6.050;2022-08-21T14:17:54;39.60;30.20
37412;DHT22;23278;52.110;6.050;2022-08-21T14:20:33;40.30;29.80
37412;DHT22;23278;52.110;6.050;2022-08-21T14:22:59;40.30;29.70
37412;DHT22;23278;52.110;6.050;2022-08-21T14:28:24;38.30;30.70
37412;DHT22;23278;52.110;6.050;2022-08-21T14:30:52;37.40;31.10
37412;DHT22;23278;52.110;6.050;2022-08-21T14:33:29;36.80;31.60
37412;DHT22;23278;52.110;6.050;2022-08-21T14:35:57;36.30;31.90
37412;DHT22;23278;52.110;6.050;2022-08-21T14:38:25;35.60;32.40
37412;DHT22;23278;52.110;6.050;2022-08-21T14:40:57;35.20;33.60
37412;DHT22;23278;52.110;6.050;2022-08-21T14:43:26;35.10;33.60
37412;DHT22;23278;52.110;6.050;2022-08-21T14:45:53;35.50;33.60
37412;DHT22;23278;52.110;6.050;2022-08-21T14:48:19;35.70;33.70
37412;DHT22;23278;52.110;6.050;2022-08-21T14:50:46;35.60;33.70
37412;DHT22;23278;52.110;6.050;2022-08-21T14:53:12;35.50;33.70
37412;DHT22;23278;52.110;6.050;2022-08-21T14:55:39;35.00;33.80
37412;DHT22;23278;52.110;6.050;2022-08-21T14:58:24;34.40;34.30
37412;DHT22;23278;52.110;6.050;2022-08-21T15:00:52;33.90;34.70
37412;DHT22;23278;52.110;6.050;2022-08-21T15:03:19;33.80;35.10
37412;DHT22;23278;52.110;6.050;2022-08-21T15:05:47;34.00;34.90
37412;DHT22;23278;52.110;6.050;2022-08-21T15:08:13;34.30;34.70
37412;DHT22;23278;52.110;6.050;2022-08-21T15:10:39;34.50;34.70
37412;DHT22;23278;52.110;6.050;2022-08-21T15:13:06;34.60;34.60
37412;DHT22;23278;52.110;6.050;2022-08-21T15:15:40;34.60;34.30
37412;DHT22;23278;52.110;6.050;2022-08-21T15:18:07;34.30;34.70
37412;DHT22;23278;52.110;6.050;2022-08-21T15:20:33;33.90;35.10
37412;DHT22;23278;52.110;6.050;2022-08-21T15:22:59;33.60;35.70
37412;DHT22;23278;52.110;6.050;2022-08-21T15:25:25;33.40;36.00
37412;DHT22;23278;52.110;6.050;2022-08-21T15:27:52;33.30;35.80
37412;DHT22;23278;52.110;6.050;2022-08-21T15:30:18;33.10;36.00
37412;DHT22;23278;52.110;6.050;2022-08-21T15:32:44;32.80;36.30
37412;DHT22;23278;52.110;6.050;2022-08-21T15:35:10;32.60;36.60
37412;DHT22;23278;52.110;6.050;2022-08-21T15:37:36;32.50;37.00
37412;DHT22;23278;52.110;6.050;2022-08-21T15:40:04;32.30;37.40
37412;DHT22;23278;52.110;6.050;2022-08-21T15:42:32;32.00;37.60
37412;DHT22;23278;52.110;6.050;2022-08-21T15:44:58;31.60;37.90
37412;DHT22;23278;52.110;6.050;2022-08-21T15:47:29;31.20;38.20
37412;DHT22;23278;52.110;6.050;2022-08-21T15:49:56;31.00;38.60
37412;DHT22;23278;52.110;6.050;2022-08-21T15:52:23;30.60;39.10
37412;DHT22;23278;52.110;6.050;2022-08-21T15:54:49;30.40;40.00
37412;DHT22;23278;52.110;6.050;2022-08-21T15:57:17;30.10;40.60
37412;DHT22;23278;52.110;6.050;2022-08-21T15:59:49;29.90;41.00
37412;DHT22;23278;52.110;6.050;2022-08-21T16:02:27;29.70;41.70
37412;DHT22;23278;52.110;6.050;2022-08-21T16:04:56;29.40;42.20
37412;DHT22;23278;52.110;6.050;2022-08-21T16:07:22;29.20;42.70
37412;DHT22;23278;52.110;6.050;2022-08-21T16:09:48;29.00;42.90
37412;DHT22;23278;52.110;6.050;2022-08-21T16:12:24;28.80;43.50
37412;DHT22;23278;52.110;6.050;2022-08-21T16:14:52;28.80;44.30
37412;DHT22;23278;52.110;6.050;2022-08-21T16:17:18;28.70;44.80
37412;DHT22;23278;52.110;6.050;2022-08-21T16:19:44;28.60;45.10
37412;DHT22;23278;52.110;6.050;2022-08-21T16:22:10;28.50;45.20
37412;DHT22;23278;52.110;6.050;2022-08-21T16:24:36;28.40;45.30
37412;DHT22;23278;52.110;6.050;2022-08-21T16:27:03;28.30;45.50
37412;DHT22;23278;52.110;6.050;2022-08-21T16:29:33;28.20;45.90
37412;DHT22;23278;52.110;6.050;2022-08-21T16:32:00;28.10;46.40
37412;DHT22;23278;52.110;6.050;2022-08-21T16:34:26;28.00;46.90
37412;DHT22;23278;52.110;6.050;2022-08-21T16:36:53;27.90;47.00
37412;DHT22;23278;52.110;6.050;2022-08-21T16:39:19;27.80;47.50
37412;DHT22;23278;52.110;6.050;2022-08-21T16:41:46;27.70;48.00
37412;DHT22;23278;52.110;6.050;2022-08-21T16:44:13;27.70;48.10
37412;DHT22;23278;52.110;6.050;2022-08-21T16:46:42;27.60;48.50
37412;DHT22;23278;52.110;6.050;2022-08-21T16:49:08;27.50;48.70
37412;DHT22;23278;52.110;6.050;2022-08-21T16:51:35;27.50;49.00
37412;DHT22;23278;52.110;6.050;2022-08-21T16:54:02;27.40;49.20
37412;DHT22;23278;52.110;6.050;2022-08-21T16:56:28;27.30;49.70
37412;DHT22;23278;52.110;6.050;2022-08-21T16:58:56;27.20;49.90
37412;DHT22;23278;52.110;6.050;2022-08-21T17:01:26;27.10;50.20